Terminal Aerodrome Forecast
Issued by NWS Louisville, KY

Home | Current Version | Previous Version | Text Only | Print | Product List | Glossary On
Versions: 1 2 3 4 5 6 7 8 9 10 11 12 13 14 15 16 17 18 19 20
000
FTUS43 KLMK 202300
TAFBWG
TAF
KBWG 202320Z 2100/2124 29010G15KT P6SM BKN070
     FM210100 28007KT P6SM BKN080
     FM210900 22004KT P6SM SCT250
     FM211300 24014G24KT P6SM SCT250=

USA.gov is the U.S. government's official web portal to all federal, state and local government web resources and services.